Terminal Aerodrome Forecast
Issued by NWS Missoula, MT

Home | Current Version | Previous Version | Text Only | Print | Product List | Glossary On
Versions: 1 2 3 4 5 6 7 8 9 10 11 12 13 14 15 16 17
000
FTUS45 KMSO 240200 AAA
TAFMSO
TAF AMD
KMSO 240245Z 2403/2424 16010KT P6SM VCSH BKN100
     FM240600 31012KT P6SM BKN100
     FM241700 27020G30KT P6SM BKN100=

USA.gov is the U.S. government's official web portal to all federal, state and local government web resources and services.